sensor_id;sensor_type;location;lat;lon;timestamp;P1;durP1;ratioP1;P2;durP2;ratioP2
4738;SDS011;2383;48.632;10.156;2023-12-29T00:03:24;9.10;;;6.27;;
4738;SDS011;2383;48.632;10.156;2023-12-29T00:07:26;8.57;;;6.17;;
4738;SDS011;2383;48.632;10.156;2023-12-29T00:11:28;7.37;;;5.53;;
4738;SDS011;2383;48.632;10.156;2023-12-29T00:15:30;10.70;;;5.80;;
4738;SDS011;2383;48.632;10.156;2023-12-29T00:19:32;17.57;;;6.20;;
4738;SDS011;2383;48.632;10.156;2023-12-29T00:23:34;7.57;;;5.33;;
4738;SDS011;2383;48.632;10.156;2023-12-29T00:27:36;8.50;;;5.23;;
4738;SDS011;2383;48.632;10.156;2023-12-29T00:31:38;8.57;;;5.30;;
4738;SDS011;2383;48.632;10.156;2023-12-29T00:35:40;7.27;;;6.07;;
4738;SDS011;2383;48.632;10.156;2023-12-29T00:39:42;6.67;;;5.40;;
4738;SDS011;2383;48.632;10.156;2023-12-29T00:43:45;10.17;;;6.50;;
4738;SDS011;2383;48.632;10.156;2023-12-29T00:47:47;8.17;;;6.37;;
4738;SDS011;2383;48.632;10.156;2023-12-29T00:51:49;7.37;;;5.83;;
4738;SDS011;2383;48.632;10.156;2023-12-29T00:55:53;8.77;;;6.23;;
4738;SDS011;2383;48.632;10.156;2023-12-29T00:59:54;8.97;;;6.30;;
4738;SDS011;2383;48.632;10.156;2023-12-29T01:03:56;9.60;;;6.27;;
4738;SDS011;2383;48.632;10.156;2023-12-29T01:07:58;7.70;;;6.23;;
4738;SDS011;2383;48.632;10.156;2023-12-29T01:12:01;7.83;;;5.83;;
4738;SDS011;2383;48.632;10.156;2023-12-29T01:16:03;11.07;;;7.07;;
4738;SDS011;2383;48.632;10.156;2023-12-29T01:20:05;9.43;;;6.13;;
4738;SDS011;2383;48.632;10.156;2023-12-29T01:24:07;10.50;;;6.90;;
4738;SDS011;2383;48.632;10.156;2023-12-29T01:28:10;9.43;;;6.87;;
4738;SDS011;2383;48.632;10.156;2023-12-29T01:32:12;9.73;;;7.17;;
4738;SDS011;2383;48.632;10.156;2023-12-29T01:36:17;9.63;;;7.03;;
4738;SDS011;2383;48.632;10.156;2023-12-29T01:40:25;8.90;;;7.00;;
4738;SDS011;2383;48.632;10.156;2023-12-29T01:44:27;10.90;;;6.90;;
4738;SDS011;2383;48.632;10.156;2023-12-29T01:48:30;10.00;;;7.50;;
4738;SDS011;2383;48.632;10.156;2023-12-29T01:52:32;8.63;;;7.07;;
4738;SDS011;2383;48.632;10.156;2023-12-29T01:56:34;10.60;;;7.60;;
4738;SDS011;2383;48.632;10.156;2023-12-29T02:00:37;11.27;;;8.20;;
4738;SDS011;2383;48.632;10.156;2023-12-29T02:04:40;10.47;;;7.93;;
4738;SDS011;2383;48.632;10.156;2023-12-29T02:08:43;13.20;;;8.50;;
4738;SDS011;2383;48.632;10.156;2023-12-29T02:12:47;9.87;;;7.70;;
4738;SDS011;2383;48.632;10.156;2023-12-29T02:17:05;12.87;;;8.20;;
4738;SDS011;2383;48.632;10.156;2023-12-29T02:21:16;11.87;;;8.40;;
4738;SDS011;2383;48.632;10.156;2023-12-29T02:25:18;14.03;;;8.77;;
4738;SDS011;2383;48.632;10.156;2023-12-29T02:29:20;10.60;;;8.50;;
4738;SDS011;2383;48.632;10.156;2023-12-29T02:33:25;11.07;;;8.80;;
4738;SDS011;2383;48.632;10.156;2023-12-29T02:37:29;12.33;;;8.30;;
4738;SDS011;2383;48.632;10.156;2023-12-29T02:41:32;10.53;;;8.17;;
4738;SDS011;2383;48.632;10.156;2023-12-29T02:45:34;13.40;;;8.73;;
4738;SDS011;2383;48.632;10.156;2023-12-29T02:49:36;11.60;;;8.67;;
4738;SDS011;2383;48.632;10.156;2023-12-29T02:53:38;10.63;;;8.10;;
4738;SDS011;2383;48.632;10.156;2023-12-29T02:57:40;11.13;;;8.37;;
4738;SDS011;2383;48.632;10.156;2023-12-29T03:01:43;11.33;;;8.27;;
4738;SDS011;2383;48.632;10.156;2023-12-29T03:05:45;11.40;;;8.43;;
4738;SDS011;2383;48.632;10.156;2023-12-29T03:09:47;12.07;;;9.03;;
4738;SDS011;2383;48.632;10.156;2023-12-29T03:13:49;11.43;;;8.30;;
4738;SDS011;2383;48.632;10.156;2023-12-29T03:17:52;10.73;;;7.43;;
4738;SDS011;2383;48.632;10.156;2023-12-29T03:21:55;10.50;;;7.37;;
4738;SDS011;2383;48.632;10.156;2023-12-29T03:25:57;10.07;;;8.40;;
4738;SDS011;2383;48.632;10.156;2023-12-29T03:29:59;12.13;;;7.23;;
4738;SDS011;2383;48.632;10.156;2023-12-29T03:34:02;10.50;;;7.17;;
4738;SDS011;2383;48.632;10.156;2023-12-29T03:38:04;10.20;;;7.53;;
4738;SDS011;2383;48.632;10.156;2023-12-29T03:42:06;9.57;;;7.07;;
4738;SDS011;2383;48.632;10.156;2023-12-29T03:50:20;8.20;;;6.13;;
4738;SDS011;2383;48.632;10.156;2023-12-29T03:54:23;10.20;;;7.27;;
4738;SDS011;2383;48.632;10.156;2023-12-29T03:58:26;13.20;;;7.13;;
4738;SDS011;2383;48.632;10.156;2023-12-29T04:02:28;11.03;;;7.27;;
4738;SDS011;2383;48.632;10.156;2023-12-29T04:06:30;13.43;;;6.87;;
4738;SDS011;2383;48.632;10.156;2023-12-29T04:10:32;10.07;;;7.70;;
4738;SDS011;2383;48.632;10.156;2023-12-29T04:14:34;12.23;;;7.77;;
4738;SDS011;2383;48.632;10.156;2023-12-29T04:18:36;10.43;;;7.77;;
4738;SDS011;2383;48.632;10.156;2023-12-29T04:22:38;10.23;;;7.23;;
4738;SDS011;2383;48.632;10.156;2023-12-29T04:26:41;9.63;;;7.30;;
4738;SDS011;2383;48.632;10.156;2023-12-29T04:30:43;10.30;;;7.17;;
4738;SDS011;2383;48.632;10.156;2023-12-29T04:34:45;8.30;;;6.70;;
4738;SDS011;2383;48.632;10.156;2023-12-29T04:38:47;9.80;;;6.80;;
4738;SDS011;2383;48.632;10.156;2023-12-29T04:42:49;10.43;;;6.63;;
4738;SDS011;2383;48.632;10.156;2023-12-29T04:46:50;10.07;;;6.97;;
4738;SDS011;2383;48.632;10.156;2023-12-29T04:50:52;8.43;;;6.67;;
4738;SDS011;2383;48.632;10.156;2023-12-29T04:54:54;10.33;;;6.50;;
4738;SDS011;2383;48.632;10.156;2023-12-29T04:58:56;9.63;;;7.53;;
4738;SDS011;2383;48.632;10.156;2023-12-29T05:02:59;10.63;;;8.40;;
4738;SDS011;2383;48.632;10.156;2023-12-29T05:07:00;9.77;;;7.53;;
4738;SDS011;2383;48.632;10.156;2023-12-29T05:11:02;10.00;;;8.23;;
4738;SDS011;2383;48.632;10.156;2023-12-29T05:15:04;12.27;;;9.40;;
4738;SDS011;2383;48.632;10.156;2023-12-29T05:19:07;13.40;;;10.03;;
4738;SDS011;2383;48.632;10.156;2023-12-29T05:23:10;14.53;;;9.97;;
4738;SDS011;2383;48.632;10.156;2023-12-29T05:27:11;12.13;;;9.40;;
4738;SDS011;2383;48.632;10.156;2023-12-29T05:31:13;11.90;;;8.90;;
4738;SDS011;2383;48.632;10.156;2023-12-29T05:35:15;11.60;;;8.90;;
4738;SDS011;2383;48.632;10.156;2023-12-29T05:39:17;11.87;;;8.57;;
4738;SDS011;2383;48.632;10.156;2023-12-29T05:43:19;14.37;;;8.57;;
4738;SDS011;2383;48.632;10.156;2023-12-29T05:47:21;10.00;;;8.33;;
4738;SDS011;2383;48.632;10.156;2023-12-29T05:51:23;11.07;;;8.53;;
4738;SDS011;2383;48.632;10.156;2023-12-29T05:55:25;12.20;;;9.20;;
4738;SDS011;2383;48.632;10.156;2023-12-29T05:59:28;13.73;;;9.40;;
4738;SDS011;2383;48.632;10.156;2023-12-29T06:03:30;11.07;;;8.70;;
4738;SDS011;2383;48.632;10.156;2023-12-29T06:07:32;13.93;;;8.67;;
4738;SDS011;2383;48.632;10.156;2023-12-29T06:11:35;12.87;;;8.40;;
4738;SDS011;2383;48.632;10.156;2023-12-29T06:15:37;9.37;;;7.27;;
4738;SDS011;2383;48.632;10.156;2023-12-29T06:19:39;10.17;;;7.13;;
4738;SDS011;2383;48.632;10.156;2023-12-29T06:23:41;9.40;;;7.40;;
4738;SDS011;2383;48.632;10.156;2023-12-29T06:27:43;9.83;;;7.40;;
4738;SDS011;2383;48.632;10.156;2023-12-29T06:31:46;8.63;;;6.83;;
4738;SDS011;2383;48.632;10.156;2023-12-29T06:35:48;9.47;;;7.23;;
4738;SDS011;2383;48.632;10.156;2023-12-29T06:39:50;8.30;;;6.50;;
4738;SDS011;2383;48.632;10.156;2023-12-29T06:43:52;12.13;;;7.20;;
4738;SDS011;2383;48.632;10.156;2023-12-29T06:47:54;8.17;;;6.10;;
4738;SDS011;2383;48.632;10.156;2023-12-29T06:51:56;9.80;;;6.30;;
4738;SDS011;2383;48.632;10.156;2023-12-29T06:55:58;8.70;;;6.30;;
4738;SDS011;2383;48.632;10.156;2023-12-29T07:00:00;10.37;;;7.20;;
4738;SDS011;2383;48.632;10.156;2023-12-29T07:04:02;8.30;;;6.87;;
4738;SDS011;2383;48.632;10.156;2023-12-29T07:08:04;9.07;;;6.37;;
4738;SDS011;2383;48.632;10.156;2023-12-29T07:12:06;9.73;;;6.10;;
4738;SDS011;2383;48.632;10.156;2023-12-29T07:16:09;11.70;;;7.73;;
4738;SDS011;2383;48.632;10.156;2023-12-29T07:20:11;12.63;;;8.33;;
4738;SDS011;2383;48.632;10.156;2023-12-29T07:24:14;11.80;;;8.50;;
4738;SDS011;2383;48.632;10.156;2023-12-29T07:28:15;11.73;;;9.00;;
4738;SDS011;2383;48.632;10.156;2023-12-29T07:32:17;12.27;;;9.33;;
4738;SDS011;2383;48.632;10.156;2023-12-29T07:36:19;11.77;;;8.63;;
4738;SDS011;2383;48.632;10.156;2023-12-29T07:40:21;15.07;;;8.97;;
4738;SDS011;2383;48.632;10.156;2023-12-29T07:44:24;8.50;;;7.20;;
4738;SDS011;2383;48.632;10.156;2023-12-29T07:48:26;7.23;;;5.80;;
4738;SDS011;2383;48.632;10.156;2023-12-29T07:52:29;7.63;;;5.10;;
4738;SDS011;2383;48.632;10.156;2023-12-29T07:56:31;7.57;;;5.10;;
4738;SDS011;2383;48.632;10.156;2023-12-29T08:00:33;7.83;;;6.33;;
4738;SDS011;2383;48.632;10.156;2023-12-29T08:04:35;6.53;;;3.70;;
4738;SDS011;2383;48.632;10.156;2023-12-29T08:08:38;7.40;;;5.17;;
4738;SDS011;2383;48.632;10.156;2023-12-29T08:12:40;5.77;;;4.93;;
4738;SDS011;2383;48.632;10.156;2023-12-29T08:16:42;8.03;;;5.90;;
4738;SDS011;2383;48.632;10.156;2023-12-29T08:20:44;14.67;;;6.43;;
4738;SDS011;2383;48.632;10.156;2023-12-29T08:24:46;8.33;;;6.43;;
4738;SDS011;2383;48.632;10.156;2023-12-29T08:28:48;12.97;;;7.33;;
4738;SDS011;2383;48.632;10.156;2023-12-29T08:32:50;12.27;;;8.27;;
4738;SDS011;2383;48.632;10.156;2023-12-29T08:36:52;8.73;;;5.97;;
4738;SDS011;2383;48.632;10.156;2023-12-29T08:40:54;9.50;;;6.03;;
4738;SDS011;2383;48.632;10.156;2023-12-29T08:44:58;7.03;;;5.77;;
4738;SDS011;2383;48.632;10.156;2023-12-29T08:49:00;8.33;;;5.83;;
4738;SDS011;2383;48.632;10.156;2023-12-29T08:53:02;8.83;;;6.43;;
4738;SDS011;2383;48.632;10.156;2023-12-29T08:57:04;10.33;;;7.30;;
4738;SDS011;2383;48.632;10.156;2023-12-29T09:01:08;9.63;;;6.67;;
4738;SDS011;2383;48.632;10.156;2023-12-29T09:05:10;9.57;;;7.10;;
4738;SDS011;2383;48.632;10.156;2023-12-29T09:09:12;8.50;;;6.63;;
4738;SDS011;2383;48.632;10.156;2023-12-29T09:13:14;9.47;;;6.60;;
4738;SDS011;2383;48.632;10.156;2023-12-29T09:17:16;29.10;;;17.47;;
4738;SDS011;2383;48.632;10.156;2023-12-29T09:21:18;9.10;;;8.07;;
4738;SDS011;2383;48.632;10.156;2023-12-29T09:25:20;8.77;;;6.30;;
4738;SDS011;2383;48.632;10.156;2023-12-29T09:29:22;9.83;;;7.83;;
4738;SDS011;2383;48.632;10.156;2023-12-29T09:33:24;9.37;;;6.60;;
4738;SDS011;2383;48.632;10.156;2023-12-29T09:37:26;8.77;;;7.43;;
4738;SDS011;2383;48.632;10.156;2023-12-29T09:41:28;7.37;;;6.03;;
4738;SDS011;2383;48.632;10.156;2023-12-29T09:45:33;8.17;;;5.43;;
4738;SDS011;2383;48.632;10.156;2023-12-29T09:49:39;12.00;;;9.67;;
4738;SDS011;2383;48.632;10.156;2023-12-29T09:53:43;11.57;;;10.30;;
4738;SDS011;2383;48.632;10.156;2023-12-29T09:57:46;9.50;;;5.50;;
4738;SDS011;2383;48.632;10.156;2023-12-29T10:01:49;8.87;;;6.07;;
4738;SDS011;2383;48.632;10.156;2023-12-29T10:05:54;7.33;;;5.57;;
4738;SDS011;2383;48.632;10.156;2023-12-29T10:09:59;4.80;;;4.23;;
4738;SDS011;2383;48.632;10.156;2023-12-29T10:14:03;8.17;;;5.30;;
4738;SDS011;2383;48.632;10.156;2023-12-29T10:18:20;5.63;;;4.00;;
4738;SDS011;2383;48.632;10.156;2023-12-29T10:22:32;5.23;;;4.07;;
4738;SDS011;2383;48.632;10.156;2023-12-29T10:26:50;4.10;;;3.70;;
4738;SDS011;2383;48.632;10.156;2023-12-29T10:30:54;4.13;;;3.73;;
4738;SDS011;2383;48.632;10.156;2023-12-29T10:35:12;3.67;;;3.17;;
4738;SDS011;2383;48.632;10.156;2023-12-29T10:39:14;4.00;;;3.20;;
4738;SDS011;2383;48.632;10.156;2023-12-29T10:43:21;3.97;;;2.73;;
4738;SDS011;2383;48.632;10.156;2023-12-29T10:47:24;3.53;;;2.90;;
4738;SDS011;2383;48.632;10.156;2023-12-29T10:51:26;2.43;;;2.23;;
4738;SDS011;2383;48.632;10.156;2023-12-29T10:55:31;2.60;;;2.40;;
4738;SDS011;2383;48.632;10.156;2023-12-29T10:59:33;3.13;;;2.43;;
4738;SDS011;2383;48.632;10.156;2023-12-29T11:03:35;2.10;;;1.90;;
4738;SDS011;2383;48.632;10.156;2023-12-29T11:07:38;2.60;;;2.40;;
4738;SDS011;2383;48.632;10.156;2023-12-29T11:11:41;3.17;;;2.70;;
4738;SDS011;2383;48.632;10.156;2023-12-29T11:15:45;2.93;;;2.57;;
4738;SDS011;2383;48.632;10.156;2023-12-29T11:19:47;3.27;;;2.50;;
4738;SDS011;2383;48.632;10.156;2023-12-29T11:23:50;2.80;;;2.60;;
4738;SDS011;2383;48.632;10.156;2023-12-29T11:27:52;4.80;;;3.87;;
4738;SDS011;2383;48.632;10.156;2023-12-29T11:31:56;4.60;;;3.50;;
4738;SDS011;2383;48.632;10.156;2023-12-29T11:36:02;3.13;;;2.57;;
4738;SDS011;2383;48.632;10.156;2023-12-29T11:44:48;4.30;;;3.00;;
4738;SDS011;2383;48.632;10.156;2023-12-29T11:48:58;2.73;;;2.47;;
4738;SDS011;2383;48.632;10.156;2023-12-29T11:53:05;3.57;;;2.83;;
4738;SDS011;2383;48.632;10.156;2023-12-29T11:57:07;2.87;;;2.60;;
4738;SDS011;2383;48.632;10.156;2023-12-29T12:01:09;9.03;;;3.97;;
4738;SDS011;2383;48.632;10.156;2023-12-29T12:05:12;4.50;;;3.30;;
4738;SDS011;2383;48.632;10.156;2023-12-29T12:09:34;8.57;;;3.73;;
4738;SDS011;2383;48.632;10.156;2023-12-29T12:13:44;3.10;;;2.70;;
4738;SDS011;2383;48.632;10.156;2023-12-29T12:17:46;3.87;;;3.03;;
4738;SDS011;2383;48.632;10.156;2023-12-29T12:21:53;3.20;;;2.90;;
4738;SDS011;2383;48.632;10.156;2023-12-29T12:25:57;3.60;;;3.23;;
4738;SDS011;2383;48.632;10.156;2023-12-29T12:30:01;5.30;;;3.73;;
4738;SDS011;2383;48.632;10.156;2023-12-29T12:34:03;4.73;;;3.77;;
4738;SDS011;2383;48.632;10.156;2023-12-29T12:38:11;3.70;;;2.80;;
4738;SDS011;2383;48.632;10.156;2023-12-29T12:42:22;3.00;;;2.70;;
4738;SDS011;2383;48.632;10.156;2023-12-29T12:46:25;5.73;;;3.00;;
4738;SDS011;2383;48.632;10.156;2023-12-29T12:50:27;4.90;;;2.93;;
4738;SDS011;2383;48.632;10.156;2023-12-29T12:54:29;2.90;;;2.60;;
4738;SDS011;2383;48.632;10.156;2023-12-29T12:58:34;3.60;;;3.10;;
4738;SDS011;2383;48.632;10.156;2023-12-29T13:02:36;3.37;;;2.73;;
4738;SDS011;2383;48.632;10.156;2023-12-29T13:06:42;2.93;;;2.67;;
4738;SDS011;2383;48.632;10.156;2023-12-29T13:10:48;2.60;;;2.40;;
4738;SDS011;2383;48.632;10.156;2023-12-29T13:14:51;3.67;;;2.40;;
4738;SDS011;2383;48.632;10.156;2023-12-29T13:18:53;13.97;;;4.13;;
4738;SDS011;2383;48.632;10.156;2023-12-29T13:22:55;2.80;;;2.50;;
4738;SDS011;2383;48.632;10.156;2023-12-29T13:26:57;2.80;;;2.43;;
4738;SDS011;2383;48.632;10.156;2023-12-29T13:31:05;2.30;;;2.10;;
4738;SDS011;2383;48.632;10.156;2023-12-29T13:35:11;4.53;;;2.23;;
4738;SDS011;2383;48.632;10.156;2023-12-29T13:39:36;3.80;;;2.83;;
4738;SDS011;2383;48.632;10.156;2023-12-29T13:43:42;3.07;;;2.77;;
4738;SDS011;2383;48.632;10.156;2023-12-29T13:47:47;5.03;;;3.30;;
4738;SDS011;2383;48.632;10.156;2023-12-29T13:51:49;3.50;;;2.60;;
4738;SDS011;2383;48.632;10.156;2023-12-29T13:55:51;3.27;;;2.53;;
4738;SDS011;2383;48.632;10.156;2023-12-29T13:59:53;4.23;;;2.60;;
4738;SDS011;2383;48.632;10.156;2023-12-29T14:03:55;5.20;;;2.33;;
4738;SDS011;2383;48.632;10.156;2023-12-29T14:12:06;3.93;;;2.67;;
4738;SDS011;2383;48.632;10.156;2023-12-29T14:16:08;5.53;;;4.83;;
4738;SDS011;2383;48.632;10.156;2023-12-29T14:20:11;16.20;;;12.43;;
4738;SDS011;2383;48.632;10.156;2023-12-29T14:24:36;15.07;;;10.33;;
4738;SDS011;2383;48.632;10.156;2023-12-29T14:28:38;3.67;;;2.93;;
4738;SDS011;2383;48.632;10.156;2023-12-29T14:32:40;12.80;;;7.03;;
4738;SDS011;2383;48.632;10.156;2023-12-29T14:36:42;36.77;;;17.37;;
4738;SDS011;2383;48.632;10.156;2023-12-29T14:40:45;16.63;;;9.23;;
4738;SDS011;2383;48.632;10.156;2023-12-29T14:44:47;24.97;;;12.50;;
4738;SDS011;2383;48.632;10.156;2023-12-29T14:48:50;15.33;;;8.53;;
4738;SDS011;2383;48.632;10.156;2023-12-29T14:52:53;3.37;;;2.90;;
4738;SDS011;2383;48.632;10.156;2023-12-29T14:56:55;3.57;;;2.83;;
4738;SDS011;2383;48.632;10.156;2023-12-29T15:01:08;5.93;;;3.77;;
4738;SDS011;2383;48.632;10.156;2023-12-29T15:05:11;4.87;;;3.70;;
4738;SDS011;2383;48.632;10.156;2023-12-29T15:09:13;5.13;;;3.53;;
4738;SDS011;2383;48.632;10.156;2023-12-29T15:13:15;5.40;;;3.80;;
4738;SDS011;2383;48.632;10.156;2023-12-29T15:17:17;8.57;;;4.53;;
4738;SDS011;2383;48.632;10.156;2023-12-29T15:21:19;5.37;;;3.27;;
4738;SDS011;2383;48.632;10.156;2023-12-29T15:25:21;3.13;;;2.40;;
4738;SDS011;2383;48.632;10.156;2023-12-29T15:29:27;4.37;;;2.90;;
4738;SDS011;2383;48.632;10.156;2023-12-29T15:33:33;2.90;;;2.60;;
4738;SDS011;2383;48.632;10.156;2023-12-29T15:37:35;5.23;;;3.50;;
4738;SDS011;2383;48.632;10.156;2023-12-29T15:41:36;4.17;;;2.80;;
4738;SDS011;2383;48.632;10.156;2023-12-29T15:45:39;13.27;;;5.93;;
4738;SDS011;2383;48.632;10.156;2023-12-29T15:49:40;3.50;;;2.70;;
4738;SDS011;2383;48.632;10.156;2023-12-29T15:53:43;8.50;;;4.50;;
4738;SDS011;2383;48.632;10.156;2023-12-29T15:57:45;4.33;;;3.20;;
4738;SDS011;2383;48.632;10.156;2023-12-29T16:01:47;6.57;;;4.10;;
4738;SDS011;2383;48.632;10.156;2023-12-29T16:05:49;3.90;;;2.40;;
4738;SDS011;2383;48.632;10.156;2023-12-29T16:09:51;3.03;;;2.57;;
4738;SDS011;2383;48.632;10.156;2023-12-29T16:13:53;3.60;;;2.50;;
4738;SDS011;2383;48.632;10.156;2023-12-29T16:17:56;3.30;;;2.33;;
4738;SDS011;2383;48.632;10.156;2023-12-29T16:21:58;2.73;;;2.40;;
4738;SDS011;2383;48.632;10.156;2023-12-29T16:26:04;8.37;;;7.67;;
4738;SDS011;2383;48.632;10.156;2023-12-29T16:30:07;4.10;;;3.70;;
4738;SDS011;2383;48.632;10.156;2023-12-29T16:34:09;4.83;;;4.23;;
4738;SDS011;2383;48.632;10.156;2023-12-29T16:38:12;2.30;;;2.10;;
4738;SDS011;2383;48.632;10.156;2023-12-29T16:42:14;3.07;;;2.13;;
4738;SDS011;2383;48.632;10.156;2023-12-29T16:46:18;2.80;;;2.17;;
4738;SDS011;2383;48.632;10.156;2023-12-29T16:50:20;2.40;;;2.13;;
4738;SDS011;2383;48.632;10.156;2023-12-29T16:54:22;2.30;;;2.10;;
4738;SDS011;2383;48.632;10.156;2023-12-29T16:58:24;2.10;;;1.90;;
4738;SDS011;2383;48.632;10.156;2023-12-29T17:02:26;2.10;;;1.90;;
4738;SDS011;2383;48.632;10.156;2023-12-29T17:06:28;2.93;;;2.30;;
4738;SDS011;2383;48.632;10.156;2023-12-29T17:10:30;3.67;;;3.10;;
4738;SDS011;2383;48.632;10.156;2023-12-29T17:14:32;4.57;;;3.53;;
4738;SDS011;2383;48.632;10.156;2023-12-29T17:18:34;4.73;;;3.13;;
4738;SDS011;2383;48.632;10.156;2023-12-29T17:22:37;3.83;;;3.03;;
4738;SDS011;2383;48.632;10.156;2023-12-29T17:26:38;4.43;;;3.17;;
4738;SDS011;2383;48.632;10.156;2023-12-29T17:30:40;5.67;;;3.80;;
4738;SDS011;2383;48.632;10.156;2023-12-29T17:34:42;3.70;;;3.10;;
4738;SDS011;2383;48.632;10.156;2023-12-29T17:38:44;3.33;;;2.50;;
4738;SDS011;2383;48.632;10.156;2023-12-29T17:42:47;3.40;;;2.57;;
4738;SDS011;2383;48.632;10.156;2023-12-29T17:46:49;3.80;;;2.67;;
4738;SDS011;2383;48.632;10.156;2023-12-29T17:50:51;4.00;;;3.10;;
4738;SDS011;2383;48.632;10.156;2023-12-29T17:54:53;4.07;;;3.40;;
4738;SDS011;2383;48.632;10.156;2023-12-29T17:58:58;4.00;;;3.27;;
4738;SDS011;2383;48.632;10.156;2023-12-29T18:03:00;5.00;;;3.30;;
4738;SDS011;2383;48.632;10.156;2023-12-29T18:07:02;3.07;;;2.70;;
4738;SDS011;2383;48.632;10.156;2023-12-29T18:11:08;8.20;;;5.43;;
4738;SDS011;2383;48.632;10.156;2023-12-29T18:15:10;7.00;;;4.87;;
4738;SDS011;2383;48.632;10.156;2023-12-29T18:19:16;7.17;;;6.07;;
4738;SDS011;2383;48.632;10.156;2023-12-29T18:23:24;5.30;;;4.07;;
4738;SDS011;2383;48.632;10.156;2023-12-29T18:27:27;5.47;;;4.73;;
4738;SDS011;2383;48.632;10.156;2023-12-29T18:31:32;10.90;;;6.20;;
4738;SDS011;2383;48.632;10.156;2023-12-29T18:35:34;8.03;;;6.20;;
4738;SDS011;2383;48.632;10.156;2023-12-29T18:39:36;33.47;;;19.63;;
4738;SDS011;2383;48.632;10.156;2023-12-29T18:43:38;10.23;;;6.60;;
4738;SDS011;2383;48.632;10.156;2023-12-29T18:47:40;9.70;;;6.20;;
4738;SDS011;2383;48.632;10.156;2023-12-29T18:51:43;9.43;;;5.53;;
4738;SDS011;2383;48.632;10.156;2023-12-29T18:55:45;9.77;;;6.10;;
4738;SDS011;2383;48.632;10.156;2023-12-29T18:59:47;9.53;;;5.40;;
4738;SDS011;2383;48.632;10.156;2023-12-29T19:03:49;9.50;;;6.57;;
4738;SDS011;2383;48.632;10.156;2023-12-29T19:07:51;12.97;;;8.00;;
4738;SDS011;2383;48.632;10.156;2023-12-29T19:11:53;12.50;;;8.67;;
4738;SDS011;2383;48.632;10.156;2023-12-29T19:15:56;12.90;;;9.37;;
4738;SDS011;2383;48.632;10.156;2023-12-29T19:20:00;15.90;;;11.13;;
4738;SDS011;2383;48.632;10.156;2023-12-29T19:24:02;15.27;;;10.80;;
4738;SDS011;2383;48.632;10.156;2023-12-29T19:28:04;17.50;;;10.47;;
4738;SDS011;2383;48.632;10.156;2023-12-29T19:32:07;14.67;;;11.30;;
4738;SDS011;2383;48.632;10.156;2023-12-29T19:36:11;16.07;;;10.87;;
4738;SDS011;2383;48.632;10.156;2023-12-29T19:40:16;20.93;;;12.80;;
4738;SDS011;2383;48.632;10.156;2023-12-29T19:44:18;21.70;;;14.33;;
4738;SDS011;2383;48.632;10.156;2023-12-29T19:48:20;23.83;;;16.00;;
4738;SDS011;2383;48.632;10.156;2023-12-29T19:52:23;20.17;;;13.00;;
4738;SDS011;2383;48.632;10.156;2023-12-29T19:56:27;18.43;;;12.53;;
4738;SDS011;2383;48.632;10.156;2023-12-29T20:00:30;15.80;;;10.93;;
4738;SDS011;2383;48.632;10.156;2023-12-29T20:04:32;15.83;;;11.33;;
4738;SDS011;2383;48.632;10.156;2023-12-29T20:08:35;16.27;;;11.73;;
4738;SDS011;2383;48.632;10.156;2023-12-29T20:12:36;16.17;;;10.70;;
4738;SDS011;2383;48.632;10.156;2023-12-29T20:16:39;17.53;;;9.67;;
4738;SDS011;2383;48.632;10.156;2023-12-29T20:20:41;26.33;;;18.00;;
4738;SDS011;2383;48.632;10.156;2023-12-29T20:24:43;19.17;;;12.60;;
4738;SDS011;2383;48.632;10.156;2023-12-29T20:28:45;24.20;;;15.37;;
4738;SDS011;2383;48.632;10.156;2023-12-29T20:32:47;19.27;;;11.73;;
4738;SDS011;2383;48.632;10.156;2023-12-29T20:36:49;18.30;;;11.73;;
4738;SDS011;2383;48.632;10.156;2023-12-29T20:40:51;14.90;;;10.30;;
4738;SDS011;2383;48.632;10.156;2023-12-29T20:44:53;16.93;;;11.77;;
4738;SDS011;2383;48.632;10.156;2023-12-29T20:48:58;19.00;;;12.00;;
4738;SDS011;2383;48.632;10.156;2023-12-29T20:53:00;20.27;;;13.30;;
4738;SDS011;2383;48.632;10.156;2023-12-29T20:57:03;17.63;;;12.17;;
4738;SDS011;2383;48.632;10.156;2023-12-29T21:01:05;27.37;;;19.70;;
4738;SDS011;2383;48.632;10.156;2023-12-29T21:05:11;10.70;;;7.10;;
4738;SDS011;2383;48.632;10.156;2023-12-29T21:09:13;17.80;;;11.17;;
4738;SDS011;2383;48.632;10.156;2023-12-29T21:13:16;13.63;;;9.67;;
4738;SDS011;2383;48.632;10.156;2023-12-29T21:17:19;15.00;;;10.60;;
4738;SDS011;2383;48.632;10.156;2023-12-29T21:21:21;16.90;;;10.40;;
4738;SDS011;2383;48.632;10.156;2023-12-29T21:25:25;14.67;;;10.07;;
4738;SDS011;2383;48.632;10.156;2023-12-29T21:29:27;19.17;;;11.43;;
4738;SDS011;2383;48.632;10.156;2023-12-29T21:33:29;17.40;;;10.80;;
4738;SDS011;2383;48.632;10.156;2023-12-29T21:37:31;21.13;;;13.43;;
4738;SDS011;2383;48.632;10.156;2023-12-29T21:41:34;12.63;;;7.90;;
4738;SDS011;2383;48.632;10.156;2023-12-29T21:45:37;11.43;;;6.67;;
4738;SDS011;2383;48.632;10.156;2023-12-29T21:49:39;15.20;;;9.90;;
4738;SDS011;2383;48.632;10.156;2023-12-29T21:53:41;20.07;;;12.40;;
4738;SDS011;2383;48.632;10.156;2023-12-29T21:57:43;21.67;;;13.60;;
4738;SDS011;2383;48.632;10.156;2023-12-29T22:01:45;33.73;;;17.93;;
4738;SDS011;2383;48.632;10.156;2023-12-29T22:05:47;54.10;;;28.10;;
4738;SDS011;2383;48.632;10.156;2023-12-29T22:09:49;45.30;;;23.47;;
4738;SDS011;2383;48.632;10.156;2023-12-29T22:13:52;61.03;;;29.90;;
4738;SDS011;2383;48.632;10.156;2023-12-29T22:17:54;43.03;;;25.83;;
4738;SDS011;2383;48.632;10.156;2023-12-29T22:21:56;41.23;;;23.37;;
4738;SDS011;2383;48.632;10.156;2023-12-29T22:25:58;32.70;;;20.07;;
4738;SDS011;2383;48.632;10.156;2023-12-29T22:30:00;33.67;;;19.70;;
4738;SDS011;2383;48.632;10.156;2023-12-29T22:34:02;29.77;;;18.47;;
4738;SDS011;2383;48.632;10.156;2023-12-29T22:38:04;36.80;;;18.87;;
4738;SDS011;2383;48.632;10.156;2023-12-29T22:42:06;31.03;;;17.80;;
4738;SDS011;2383;48.632;10.156;2023-12-29T22:46:08;30.57;;;18.00;;
4738;SDS011;2383;48.632;10.156;2023-12-29T22:50:13;34.07;;;19.83;;
4738;SDS011;2383;48.632;10.156;2023-12-29T22:54:15;36.70;;;20.40;;
4738;SDS011;2383;48.632;10.156;2023-12-29T22:58:17;41.03;;;21.83;;
4738;SDS011;2383;48.632;10.156;2023-12-29T23:02:19;41.03;;;21.23;;
4738;SDS011;2383;48.632;10.156;2023-12-29T23:06:21;39.87;;;20.73;;
4738;SDS011;2383;48.632;10.156;2023-12-29T23:10:23;31.17;;;17.10;;
4738;SDS011;2383;48.632;10.156;2023-12-29T23:14:26;25.53;;;14.30;;
4738;SDS011;2383;48.632;10.156;2023-12-29T23:18:28;29.30;;;16.03;;
4738;SDS011;2383;48.632;10.156;2023-12-29T23:22:30;22.23;;;11.13;;
4738;SDS011;2383;48.632;10.156;2023-12-29T23:26:32;12.70;;;7.93;;
4738;SDS011;2383;48.632;10.156;2023-12-29T23:30:40;10.07;;;5.50;;
4738;SDS011;2383;48.632;10.156;2023-12-29T23:34:42;7.03;;;3.30;;
4738;SDS011;2383;48.632;10.156;2023-12-29T23:38:45;3.57;;;2.97;;
4738;SDS011;2383;48.632;10.156;2023-12-29T23:42:47;4.63;;;2.40;;
4738;SDS011;2383;48.632;10.156;2023-12-29T23:46:50;5.00;;;2.10;;
4738;SDS011;2383;48.632;10.156;2023-12-29T23:50:52;4.63;;;2.27;;
4738;SDS011;2383;48.632;10.156;2023-12-29T23:54:54;2.60;;;2.10;;
4738;SDS011;2383;48.632;10.156;2023-12-29T23:58:56;6.93;;;4.13;;
